createdAt,value
2018-08-03T00:02:20.342Z,12.50
2018-08-03T00:04:47.978Z,12.93
2018-08-03T00:07:15.608Z,14.43
2018-08-03T00:09:43.268Z,14.90
2018-08-03T00:12:10.920Z,13.07
2018-08-03T00:14:39.108Z,15.30
2018-08-03T00:17:06.627Z,12.90
2018-08-03T00:19:34.386Z,15.50
2018-08-03T00:22:02.042Z,12.60
2018-08-03T00:24:29.702Z,14.47
2018-08-03T00:26:57.339Z,13.30
2018-08-03T00:29:24.999Z,13.20
2018-08-03T00:31:52.645Z,13.20
2018-08-03T00:34:20.131Z,13.83
2018-08-03T00:36:47.682Z,14.93
2018-08-03T00:39:15.277Z,15.33
2018-08-03T00:41:42.902Z,13.17
2018-08-03T00:44:10.571Z,12.67
2018-08-03T00:46:38.180Z,11.80
2018-08-03T00:49:05.797Z,12.20
2018-08-03T00:51:33.443Z,12.60
2018-08-03T00:54:01.656Z,14.40
2018-08-03T00:56:29.333Z,12.87
2018-08-03T00:58:57.083Z,13.43
2018-08-03T01:01:24.781Z,12.70
2018-08-03T01:03:52.435Z,12.77
2018-08-03T01:06:20.067Z,14.63
2018-08-03T01:08:47.731Z,13.70
2018-08-03T01:11:15.391Z,16.17
2018-08-03T01:13:43.901Z,14.87
2018-08-03T01:16:11.508Z,14.33
2018-08-03T01:18:39.159Z,15.17
2018-08-03T01:21:06.928Z,16.17
2018-08-03T01:23:34.629Z,15.53
2018-08-03T01:26:02.142Z,15.80
2018-08-03T01:28:29.664Z,17.77
2018-08-03T01:30:57.297Z,18.17
2018-08-03T01:33:24.918Z,15.37
2018-08-03T01:35:52.743Z,17.23
2018-08-03T01:38:20.248Z,15.57
2018-08-03T01:40:47.924Z,16.53
2018-08-03T01:43:15.669Z,15.37
2018-08-03T01:45:43.168Z,14.60
2018-08-03T01:48:10.814Z,16.83
2018-08-03T01:50:38.321Z,17.30
2018-08-03T01:53:05.886Z,17.03
2018-08-03T01:55:33.426Z,16.67
2018-08-03T01:58:01.051Z,16.90
2018-08-03T02:00:28.662Z,14.83
2018-08-03T02:02:56.319Z,15.77
2018-08-03T02:05:23.964Z,15.73
2018-08-03T02:07:51.487Z,18.63
2018-08-03T02:10:19.138Z,18.50
2018-08-03T02:12:46.757Z,18.43
2018-08-03T02:15:14.411Z,16.67
2018-08-03T02:17:41.951Z,17.80
2018-08-03T02:20:09.576Z,15.37
2018-08-03T02:22:37.342Z,19.40
2018-08-03T02:25:05.518Z,16.03
2018-08-03T02:27:33.328Z,17.43
2018-08-03T02:30:01.384Z,15.73
2018-08-03T02:32:29.059Z,19.20
2018-08-03T02:34:56.818Z,16.90
2018-08-03T02:37:24.444Z,16.53
2018-08-03T02:39:52.072Z,19.03
2018-08-03T02:42:19.698Z,19.97
2018-08-03T02:44:47.213Z,16.97
2018-08-03T02:47:14.896Z,17.17
2018-08-03T02:49:42.596Z,15.83
2018-08-03T02:52:10.508Z,15.83
2018-08-03T02:54:38.127Z,16.20
2018-08-03T02:57:05.807Z,16.47
2018-08-03T02:59:33.297Z,17.13
2018-08-03T03:02:00.906Z,16.73
2018-08-03T03:04:28.552Z,16.83
2018-08-03T03:06:56.397Z,18.27
2018-08-03T03:09:24.033Z,16.40
2018-08-03T03:11:51.517Z,17.03
2018-08-03T03:14:19.053Z,15.83
2018-08-03T03:16:46.616Z,16.37
2018-08-03T03:19:14.233Z,13.90
2018-08-03T03:21:41.919Z,16.63
2018-08-03T03:24:09.567Z,16.77
2018-08-03T03:26:37.218Z,16.03
2018-08-03T03:29:04.708Z,15.77
2018-08-03T03:31:32.338Z,17.77
2018-08-03T03:33:59.951Z,14.80
2018-08-03T03:36:27.560Z,17.80
2018-08-03T03:38:55.274Z,16.53
2018-08-03T03:41:22.857Z,16.93
2018-08-03T03:43:50.483Z,16.17
2018-08-03T03:46:17.957Z,16.30
2018-08-03T03:48:45.600Z,15.57
2018-08-03T03:51:13.178Z,13.93
2018-08-03T03:53:40.708Z,16.20
2018-08-03T03:56:08.360Z,15.80
2018-08-03T03:58:35.977Z,14.70
2018-08-03T04:01:03.468Z,16.47
2018-08-03T04:03:31.335Z,15.87
2018-08-03T04:05:59.025Z,15.43
2018-08-03T04:08:26.662Z,16.10
2018-08-03T04:10:54.423Z,16.40
2018-08-03T04:13:21.987Z,16.37
2018-08-03T04:15:49.458Z,16.33
2018-08-03T04:18:19.620Z,15.20
2018-08-03T04:20:47.480Z,18.03
2018-08-03T04:23:15.114Z,15.27
2018-08-03T04:25:42.930Z,15.53
2018-08-03T04:28:10.523Z,17.03
2018-08-03T04:30:38.139Z,17.20
2018-08-03T04:33:05.742Z,16.10
2018-08-03T04:35:33.343Z,18.30
2018-08-03T04:38:00.974Z,15.70
2018-08-03T04:40:28.625Z,16.63
2018-08-03T04:42:56.215Z,14.40
2018-08-03T04:45:23.838Z,17.57
2018-08-03T04:47:51.457Z,18.17
2018-08-03T04:50:19.234Z,15.50
2018-08-03T04:52:46.920Z,17.30
2018-08-03T04:55:14.520Z,17.33
2018-08-03T04:57:42.107Z,15.03
2018-08-03T05:00:09.749Z,14.50
2018-08-03T05:02:37.365Z,15.90
2018-08-03T05:05:04.880Z,15.77
2018-08-03T05:07:32.347Z,15.30
2018-08-03T05:10:00.039Z,17.07
2018-08-03T05:12:27.764Z,15.47
2018-08-03T05:14:55.263Z,15.50
2018-08-03T05:17:22.893Z,13.83
2018-08-03T05:19:50.385Z,14.33
2018-08-03T05:22:18.028Z,15.90
2018-08-03T05:24:45.647Z,15.13
2018-08-03T05:27:13.282Z,16.73
2018-08-03T05:29:40.904Z,17.03
2018-08-03T05:32:08.535Z,16.80
2018-08-03T05:34:36.182Z,15.33
2018-08-03T05:37:03.860Z,16.27
2018-08-03T05:39:31.578Z,17.20
2018-08-03T05:41:59.220Z,15.50
2018-08-03T05:44:26.847Z,16.83
2018-08-03T05:46:54.385Z,14.97
2018-08-03T05:49:21.983Z,13.93
2018-08-03T05:51:49.638Z,13.90
2018-08-03T05:54:17.111Z,15.80
2018-08-03T05:56:44.749Z,13.47
2018-08-03T05:59:12.324Z,13.27
2018-08-03T06:01:39.958Z,14.60
2018-08-03T06:04:07.736Z,12.27
2018-08-03T06:06:35.274Z,12.83
2018-08-03T06:09:04.224Z,11.90
2018-08-03T06:11:31.838Z,13.07
2018-08-03T06:13:59.520Z,12.47
2018-08-03T06:16:27.122Z,11.60
2018-08-03T06:18:54.764Z,12.43
2018-08-03T06:21:22.509Z,11.90
2018-08-03T06:23:50.126Z,12.87
2018-08-03T06:26:17.798Z,12.10
2018-08-03T06:28:45.503Z,12.63
2018-08-03T06:31:13.116Z,12.90
2018-08-03T06:33:40.773Z,12.20
2018-08-03T06:36:08.440Z,12.17
2018-08-03T06:38:36.079Z,12.57
2018-08-03T06:41:03.834Z,12.83
2018-08-03T06:43:31.509Z,12.63
2018-08-03T06:45:59.113Z,11.60
2018-08-03T06:48:26.732Z,11.83
2018-08-03T06:50:54.309Z,11.87
2018-08-03T06:53:21.975Z,11.63
2018-08-03T06:55:49.504Z,12.07
2018-08-03T06:58:17.025Z,11.43
2018-08-03T07:00:44.640Z,11.97
2018-08-03T07:03:12.164Z,12.10
2018-08-03T07:05:39.924Z,12.07
2018-08-03T07:08:07.545Z,12.47
2018-08-03T07:10:35.054Z,11.73
2018-08-03T07:15:32.853Z,12.43
2018-08-03T07:18:00.531Z,10.90
2018-08-03T07:20:28.419Z,11.97
2018-08-03T07:22:55.962Z,11.70
2018-08-03T07:25:23.709Z,11.93
2018-08-03T07:27:52.089Z,11.53
2018-08-03T07:30:19.750Z,11.93
2018-08-03T07:32:48.162Z,10.93
2018-08-03T07:35:15.911Z,12.27
2018-08-03T07:37:43.546Z,11.57
2018-08-03T07:40:11.269Z,11.97
2018-08-03T07:42:38.975Z,12.00
2018-08-03T07:45:06.627Z,11.47
2018-08-03T07:47:34.329Z,13.20
2018-08-03T07:50:02.000Z,11.60
2018-08-03T07:52:29.882Z,11.70
2018-08-03T07:54:57.511Z,12.83
2018-08-03T07:57:25.226Z,11.70
2018-08-03T07:59:52.830Z,11.93
2018-08-03T08:02:20.592Z,12.03
2018-08-03T08:04:48.207Z,11.57
2018-08-03T08:07:15.767Z,11.60
2018-08-03T08:09:43.481Z,12.10
2018-08-03T08:12:10.985Z,11.63
2018-08-03T08:14:38.616Z,12.17
2018-08-03T08:17:06.464Z,11.53
2018-08-03T08:19:34.110Z,12.97
2018-08-03T08:22:01.825Z,12.07
2018-08-03T08:24:29.714Z,11.73
2018-08-03T08:26:57.385Z,12.93
2018-08-03T08:29:25.070Z,11.60
2018-08-03T08:31:52.686Z,11.13
2018-08-03T08:34:20.370Z,11.70
2018-08-03T08:36:48.119Z,11.37
2018-08-03T08:39:15.796Z,12.00
2018-08-03T08:41:43.468Z,11.30
2018-08-03T08:44:11.956Z,11.53
2018-08-03T08:46:39.795Z,11.10
2018-08-03T08:49:07.498Z,11.70
2018-08-03T08:51:35.144Z,11.07
2018-08-03T08:54:02.800Z,11.50
2018-08-03T08:56:30.444Z,12.10
2018-08-03T08:58:58.125Z,11.50
2018-08-03T09:01:26.006Z,11.30
2018-08-03T09:03:54.325Z,12.27
2018-08-03T09:06:21.936Z,11.30
2018-08-03T09:08:49.526Z,10.82
2018-08-03T09:11:17.185Z,11.00
2018-08-03T09:13:44.887Z,11.37
2018-08-03T09:16:12.572Z,11.43
2018-08-03T09:18:40.200Z,10.90
2018-08-03T09:21:07.836Z,10.43
2018-08-03T09:23:35.428Z,10.40
2018-08-03T09:26:03.127Z,10.27
2018-08-03T09:28:30.781Z,9.78
2018-08-03T09:30:58.447Z,10.00
2018-08-03T09:33:26.233Z,10.15
2018-08-03T09:35:53.885Z,10.78
2018-08-03T09:38:21.590Z,10.10
2018-08-03T09:40:49.201Z,10.00
2018-08-03T09:43:16.871Z,10.28
2018-08-03T09:45:44.496Z,10.30
2018-08-03T09:48:12.175Z,10.45
2018-08-03T09:50:39.836Z,10.75
2018-08-03T09:53:07.430Z,10.30
2018-08-03T09:55:35.105Z,10.53
2018-08-03T09:58:02.777Z,9.95
2018-08-03T10:00:36.111Z,10.68
2018-08-03T10:03:13.261Z,10.78
2018-08-03T10:05:40.943Z,10.15
2018-08-03T10:08:08.576Z,10.80
2018-08-03T10:10:36.265Z,10.98
2018-08-03T10:13:03.907Z,10.45
2018-08-03T10:15:31.604Z,11.00
2018-08-03T10:17:59.210Z,10.65
2018-08-03T10:20:26.789Z,10.30
2018-08-03T10:22:54.394Z,12.85
2018-08-03T10:25:22.067Z,10.58
2018-08-03T10:27:49.665Z,11.08
2018-08-03T10:30:17.337Z,10.28
2018-08-03T10:32:44.996Z,10.88
2018-08-03T10:35:12.708Z,10.75
2018-08-03T10:37:40.349Z,11.63
2018-08-03T10:40:07.976Z,10.95
2018-08-03T10:42:35.660Z,10.93
2018-08-03T10:45:03.414Z,10.72
2018-08-03T10:47:31.116Z,10.30
2018-08-03T10:49:58.781Z,11.38
2018-08-03T10:52:26.445Z,11.08
2018-08-03T10:54:54.203Z,11.57
2018-08-03T10:57:21.838Z,11.18
2018-08-03T10:59:49.507Z,11.30
2018-08-03T11:02:17.267Z,11.03
2018-08-03T11:04:45.012Z,11.83
2018-08-03T11:07:12.748Z,10.80
2018-08-03T11:09:40.397Z,11.30
2018-08-03T11:12:08.055Z,10.78
2018-08-03T11:14:35.681Z,10.68
2018-08-03T11:17:03.366Z,10.48
2018-08-03T11:19:31.001Z,11.10
2018-08-03T11:21:58.725Z,10.65
2018-08-03T11:24:26.405Z,11.05
2018-08-03T11:26:54.133Z,10.88
2018-08-03T11:29:21.860Z,12.50
2018-08-03T11:31:49.471Z,11.65
2018-08-03T11:34:17.213Z,11.85
2018-08-03T11:36:44.840Z,12.10
2018-08-03T11:39:12.548Z,11.03
2018-08-03T11:41:40.252Z,11.48
2018-08-03T11:44:07.963Z,11.30
2018-08-03T11:46:35.717Z,10.68
2018-08-03T11:49:03.288Z,12.23
2018-08-03T11:51:31.006Z,11.50
2018-08-03T11:53:58.621Z,11.15
2018-08-03T11:56:26.317Z,11.60
2018-08-03T11:58:53.966Z,11.48
2018-08-03T12:01:21.816Z,10.90
2018-08-03T12:03:49.551Z,11.25
2018-08-03T12:06:17.183Z,10.85
2018-08-03T12:08:44.843Z,12.28
2018-08-03T12:11:12.505Z,10.70
2018-08-03T12:13:40.131Z,10.48
2018-08-03T12:16:07.803Z,10.35
2018-08-03T12:18:35.456Z,11.25
2018-08-03T12:21:03.232Z,11.28
2018-08-03T12:23:31.005Z,11.35
2018-08-03T12:25:58.647Z,10.65
2018-08-03T12:28:26.267Z,9.33
2018-08-03T12:30:53.986Z,10.38
2018-08-03T12:33:21.806Z,10.23
2018-08-03T12:35:49.475Z,9.73
2018-08-03T12:38:17.116Z,9.60
2018-08-03T12:40:44.827Z,9.10
2018-08-03T12:43:12.523Z,9.23
2018-08-03T12:45:40.132Z,8.35
2018-08-03T12:48:07.823Z,8.80
2018-08-03T12:50:35.550Z,9.00
2018-08-03T12:53:03.271Z,8.73
2018-08-03T12:55:30.952Z,8.65
2018-08-03T12:57:58.606Z,9.60
2018-08-03T13:00:26.266Z,8.93
2018-08-03T13:02:53.902Z,9.38
2018-08-03T13:05:21.603Z,9.33
2018-08-03T13:07:49.408Z,8.63
2018-08-03T13:10:17.034Z,9.80
2018-08-03T13:12:44.708Z,9.53
2018-08-03T13:15:12.403Z,10.05
2018-08-03T13:17:40.175Z,9.50
2018-08-03T13:20:07.968Z,10.00
2018-08-03T13:22:35.588Z,10.10
2018-08-03T13:25:03.633Z,9.55
2018-08-03T13:27:31.446Z,9.48
2018-08-03T13:29:59.324Z,10.93
2018-08-03T13:32:27.038Z,9.45
2018-08-03T13:34:54.681Z,9.15
2018-08-03T13:37:22.328Z,9.28
2018-08-03T13:39:50.130Z,10.10
2018-08-03T13:42:17.750Z,10.45
2018-08-03T13:44:45.458Z,9.65
2018-08-03T13:47:13.112Z,9.28
2018-08-03T13:49:40.805Z,9.55
2018-08-03T13:52:08.537Z,9.43
2018-08-03T13:54:36.296Z,8.90
2018-08-03T13:57:04.359Z,8.78
2018-08-03T13:59:32.077Z,8.68
2018-08-03T14:02:10.792Z,8.58
2018-08-03T14:04:38.557Z,8.30
2018-08-03T14:07:06.376Z,8.40
2018-08-03T14:09:34.052Z,7.45
2018-08-03T14:12:01.901Z,7.90
2018-08-03T14:14:29.627Z,7.85
2018-08-03T14:16:57.411Z,8.20
2018-08-03T14:19:25.223Z,7.50
2018-08-03T14:21:52.998Z,8.30
2018-08-03T14:24:20.882Z,8.88
2018-08-03T14:26:48.646Z,7.90
2018-08-03T14:29:16.387Z,8.38
2018-08-03T14:31:44.290Z,8.43
2018-08-03T14:34:12.169Z,8.60
2018-08-03T14:36:39.991Z,8.70
2018-08-03T14:39:08.757Z,8.68
2018-08-03T14:41:36.755Z,8.73
2018-08-03T14:44:04.877Z,8.88
2018-08-03T14:46:32.657Z,9.38
2018-08-03T14:49:00.317Z,8.85
2018-08-03T14:51:28.136Z,10.08
2018-08-03T14:53:55.851Z,9.25
2018-08-03T14:56:23.567Z,9.28
2018-08-03T14:58:51.533Z,8.85
2018-08-03T15:01:19.210Z,9.78
2018-08-03T15:03:46.889Z,8.68
2018-08-03T15:06:14.563Z,8.90
2018-08-03T15:08:42.344Z,9.45
2018-08-03T15:11:10.007Z,9.03
2018-08-03T15:13:37.742Z,8.83
2018-08-03T15:16:05.553Z,9.58
2018-08-03T15:18:33.226Z,9.38
2018-08-03T15:21:00.972Z,8.93
2018-08-03T15:23:28.572Z,8.45
2018-08-03T15:25:56.392Z,8.63
2018-08-03T15:28:24.012Z,9.15
2018-08-03T15:30:51.812Z,8.83
2018-08-03T15:33:19.496Z,8.90
2018-08-03T15:35:47.290Z,9.23
2018-08-03T15:38:15.024Z,9.60
2018-08-03T15:40:42.733Z,9.13
2018-08-03T15:43:10.399Z,9.30
2018-08-03T15:45:38.174Z,9.28
2018-08-03T15:48:05.857Z,10.50
2018-08-03T15:50:33.597Z,10.10
2018-08-03T15:53:01.367Z,9.53
2018-08-03T15:55:29.074Z,9.98
2018-08-03T15:57:56.747Z,9.80
2018-08-03T16:00:24.438Z,9.03
2018-08-03T16:02:52.163Z,9.98
2018-08-03T16:05:19.808Z,9.63
2018-08-03T16:07:47.527Z,9.68
2018-08-03T16:10:15.183Z,9.63
2018-08-03T16:12:43.029Z,9.98
2018-08-03T16:15:10.652Z,10.10
2018-08-03T16:17:38.500Z,9.50
2018-08-03T16:20:06.138Z,9.38
2018-08-03T16:22:33.874Z,9.75
2018-08-03T16:25:01.457Z,9.65
2018-08-03T16:27:29.212Z,9.50
2018-08-03T16:29:57.004Z,8.93
2018-08-03T16:32:24.775Z,9.40
2018-08-03T16:34:52.507Z,8.83
2018-08-03T16:37:20.192Z,10.03
2018-08-03T16:39:48.058Z,9.28
2018-08-03T16:42:15.732Z,9.58
2018-08-03T16:44:43.502Z,9.38
2018-08-03T16:47:11.152Z,9.13
2018-08-03T16:49:38.842Z,8.45
2018-08-03T16:52:06.599Z,9.65
2018-08-03T16:54:34.324Z,9.15
2018-08-03T16:57:01.926Z,9.50
2018-08-03T16:59:29.575Z,9.15
2018-08-03T17:01:57.367Z,9.65
2018-08-03T17:04:24.984Z,9.18
2018-08-03T17:06:52.665Z,9.10
2018-08-03T17:09:20.312Z,8.88
2018-08-03T17:11:48.080Z,9.50
2018-08-03T17:14:15.819Z,9.03
2018-08-03T17:16:43.486Z,8.63
2018-08-03T17:19:11.167Z,8.98
2018-08-03T17:21:38.900Z,10.08
2018-08-03T17:24:06.559Z,9.48
2018-08-03T17:26:34.279Z,8.88
2018-08-03T17:29:01.934Z,9.10
2018-08-03T17:31:29.609Z,8.90
2018-08-03T17:33:57.237Z,8.25
2018-08-03T17:36:24.932Z,8.18
2018-08-03T17:38:52.703Z,8.27
2018-08-03T17:41:20.441Z,8.13
2018-08-03T17:43:48.144Z,8.53
2018-08-03T17:46:15.887Z,7.50
2018-08-03T17:48:43.608Z,7.90
2018-08-03T17:51:11.424Z,8.50
2018-08-03T17:53:39.105Z,8.13
2018-08-03T17:56:06.895Z,9.63
2018-08-03T17:58:34.590Z,9.47
2018-08-03T18:01:02.315Z,9.30
2018-08-03T18:03:30.093Z,10.37
2018-08-03T18:05:57.942Z,10.70
2018-08-03T18:08:25.584Z,10.23
2018-08-03T18:10:53.303Z,10.43
2018-08-03T18:13:21.084Z,10.10
2018-08-03T18:15:48.922Z,10.17
2018-08-03T18:18:16.647Z,10.10
2018-08-03T18:20:44.377Z,10.40
2018-08-03T18:23:12.085Z,11.03
2018-08-03T18:25:39.801Z,10.40
2018-08-03T18:28:07.606Z,10.50
2018-08-03T18:30:35.289Z,10.70
2018-08-03T18:33:03.040Z,10.83
2018-08-03T18:35:30.734Z,10.67
2018-08-03T18:37:58.460Z,10.90
2018-08-03T18:40:26.102Z,11.23
2018-08-03T18:42:53.778Z,12.10
2018-08-03T18:45:21.501Z,12.60
2018-08-03T18:47:49.208Z,12.27
2018-08-03T18:50:16.933Z,11.80
2018-08-03T18:52:44.613Z,12.80
2018-08-03T18:55:12.309Z,12.23
2018-08-03T18:57:40.185Z,12.43
2018-08-03T19:00:07.823Z,11.87
2018-08-03T19:02:35.465Z,11.73
2018-08-03T19:05:03.430Z,11.60
2018-08-03T19:07:31.177Z,10.63
2018-08-03T19:09:58.837Z,11.27
2018-08-03T19:12:26.503Z,12.20
2018-08-03T19:14:54.285Z,11.57
2018-08-03T19:17:22.034Z,12.10
2018-08-03T19:19:49.829Z,12.30
2018-08-03T19:22:17.455Z,11.67
2018-08-03T19:24:45.185Z,12.90
2018-08-03T19:27:12.832Z,11.53
2018-08-03T19:29:40.610Z,12.20
2018-08-03T19:32:08.391Z,12.20
2018-08-03T19:34:36.173Z,11.47
2018-08-03T19:37:03.987Z,11.93
2018-08-03T19:39:31.718Z,11.73
2018-08-03T19:41:59.328Z,12.33
2018-08-03T19:44:27.013Z,13.10
2018-08-03T19:46:54.832Z,12.43
2018-08-03T19:49:22.353Z,13.43
2018-08-03T19:51:50.059Z,13.73
2018-08-03T19:54:18.049Z,12.67
2018-08-03T19:56:45.979Z,13.30
2018-08-03T19:59:13.740Z,12.87
2018-08-03T20:01:41.650Z,12.53
2018-08-03T20:04:09.375Z,13.83
2018-08-03T20:06:37.372Z,14.40
2018-08-03T20:09:07.594Z,13.50
2018-08-03T20:11:35.404Z,14.60
2018-08-03T20:14:03.227Z,13.10
2018-08-03T20:16:31.045Z,14.43
2018-08-03T20:18:58.810Z,13.77
2018-08-03T20:21:26.466Z,13.57
2018-08-03T20:23:54.205Z,14.07
2018-08-03T20:26:21.935Z,13.23
2018-08-03T20:28:49.680Z,13.70
2018-08-03T20:31:17.344Z,13.73
2018-08-03T20:33:45.229Z,12.87
2018-08-03T20:36:13.016Z,13.83
2018-08-03T20:38:40.834Z,14.13
2018-08-03T20:41:08.584Z,13.33
2018-08-03T20:43:36.348Z,13.43
2018-08-03T20:46:04.003Z,14.13
2018-08-03T20:48:31.774Z,13.03
2018-08-03T20:50:59.467Z,13.93
2018-08-03T20:53:27.294Z,14.73
2018-08-03T20:55:55.078Z,13.90
2018-08-03T20:58:22.958Z,14.27
2018-08-03T21:00:50.756Z,16.20
2018-08-03T21:03:18.585Z,14.80
2018-08-03T21:05:46.352Z,15.40
2018-08-03T21:08:14.214Z,15.43
2018-08-03T21:10:42.095Z,15.10
2018-08-03T21:13:09.960Z,14.33
2018-08-03T21:15:37.664Z,15.53
2018-08-03T21:18:05.426Z,15.43
2018-08-03T21:20:33.345Z,14.47
2018-08-03T21:23:01.040Z,14.80
2018-08-03T21:25:28.820Z,15.70
2018-08-03T21:27:56.458Z,16.00
2018-08-03T21:30:24.134Z,15.30
2018-08-03T21:32:51.764Z,15.57
2018-08-03T21:35:19.478Z,14.93
2018-08-03T21:37:47.153Z,15.13
2018-08-03T21:40:14.874Z,16.53
2018-08-03T21:42:42.562Z,15.27
2018-08-03T21:45:10.252Z,16.17
2018-08-03T21:47:37.880Z,17.33
2018-08-03T21:50:05.855Z,14.87
2018-08-03T21:52:33.584Z,16.70
2018-08-03T21:55:01.252Z,16.63
2018-08-03T21:57:28.990Z,17.03
2018-08-03T21:59:56.743Z,16.90
2018-08-03T22:02:24.537Z,16.77
2018-08-03T22:04:52.196Z,16.10
2018-08-03T22:07:20.496Z,18.03
2018-08-03T22:09:48.205Z,17.83
2018-08-03T22:12:15.992Z,16.30
2018-08-03T22:14:43.591Z,15.83
2018-08-03T22:17:11.459Z,15.37
2018-08-03T22:19:39.114Z,15.67
2018-08-03T22:22:06.698Z,15.77
2018-08-03T22:24:34.525Z,18.57
2018-08-03T22:27:02.404Z,17.77
2018-08-03T22:29:30.070Z,16.87
2018-08-03T22:31:57.891Z,17.87
2018-08-03T22:34:25.612Z,16.57
2018-08-03T22:36:53.324Z,19.83
2018-08-03T22:39:21.000Z,16.73
2018-08-03T22:41:48.679Z,18.97
2018-08-03T22:44:16.303Z,16.80
2018-08-03T22:46:44.004Z,18.10
2018-08-03T22:49:11.699Z,16.87
2018-08-03T22:51:39.313Z,17.67
2018-08-03T22:54:07.030Z,17.73
2018-08-03T22:56:34.785Z,19.30
2018-08-03T22:59:02.510Z,17.50
2018-08-03T23:01:30.170Z,19.67
2018-08-03T23:03:57.978Z,19.07
2018-08-03T23:06:25.658Z,17.33
2018-08-03T23:08:53.359Z,18.87
2018-08-03T23:11:20.999Z,17.67
2018-08-03T23:13:48.724Z,17.40
2018-08-03T23:16:16.450Z,15.87
2018-08-03T23:18:44.100Z,16.20
2018-08-03T23:21:11.750Z,16.87
2018-08-03T23:23:39.391Z,15.33
2018-08-03T23:26:07.045Z,16.83
2018-08-03T23:28:34.703Z,16.73
2018-08-03T23:31:02.423Z,16.93
2018-08-03T23:33:29.976Z,18.03
2018-08-03T23:35:57.613Z,16.40
2018-08-03T23:38:25.334Z,17.53
2018-08-03T23:40:52.829Z,17.47
2018-08-03T23:43:20.509Z,17.83
2018-08-03T23:45:48.274Z,18.80
2018-08-03T23:48:15.890Z,16.73
2018-08-03T23:50:43.601Z,16.37
2018-08-03T23:53:11.196Z,17.13
2018-08-03T23:55:38.819Z,15.83
2018-08-03T23:58:06.500Z,16.33
